Details From GMMN - Casablanca Mohammed V Intl
To FIMR - Plaine Corail
Flight Number -
Tags Standard
Created
Modified
Stats Distance 5,162 nm / 9,561 km
Max Altitude 0 ft / 0 m
Waypoints 2
Social Downloads 0
Likes 0
Share VATSIM

Download

Looking for another format? Having issues loading an existing format? Contact us
Advertisement - Login to hide

Notes

None

Route

GMMN FIMR

ID Type Via Altitude Latitude Longitude Leg Dist Tot Dist Heading (true) Name
O GMMN APT - 0 ft / 0 m 33.38306˚ -7.59743˚ - 0 nm - -
O FIMR APT - 0 ft / 0 m -19.75607˚ 63.35507˚ 5162 nm 5162 nm 117° / 128° PLAINE CORAIL

Altitude Profile

Advertisement - Login to hide

Weather


0- 5 10 15 20 25 30 35+ Temperature / ° C

Clouds and Precipitation
Forecast for 2017-12-14 06:00 UTC. Updated an hour ago

Ground ~20,000 ft ~40,000 ft Winds

GMMN

Details ICAO GMMN (CMN)
Name Casablanca Mohammed V Intl
Region Morocco
Timezone Africa/Casablanca (UTC+0.0)
Stats Elevation 656 ft / 200 m (AMSL)
Location 33.367466° -7.589964°
Runways 2
Magnetic Variation 1.817° W

METAR

GMMN 140430Z 14004KT 9000 NSC 05/05 Q1027 NOSIG

Decode

TAF

TAF GMMN 132300Z 1400/1506 06002KT CAVOK BECMG 1409/1412 36012KT 9999 FEW020

Decode

Departure Runways

ID Width Length Bearing (true) Bearing (mag) Surface Threshold Offset Overrun Length
17L 148 ft / 45 m 12,224 ft / 3,726 m 164.03° 165.85° Asphalt 0 ft / 0 m 295 ft / 90 m
17R 148 ft / 45 m 12,196 ft / 3,717 m 164.03° 165.85° Asphalt 0 ft / 0 m 197 ft / 60 m
35L 148 ft / 45 m 12,196 ft / 3,717 m 344.04° 345.86° Asphalt 0 ft / 0 m 180 ft / 55 m
35R 148 ft / 45 m 12,224 ft / 3,726 m 344.04° 345.86° Asphalt 0 ft / 0 m 995 ft / 303 m

FIMR

Details ICAO FIMR (RRG)
Name PLAINE CORAIL
Region Mauritius
Timezone Indian/Mauritius (UTC+4.0)
Stats Elevation 95 ft / 29 m (AMSL)
Location -19.757658° 63.360982°
Runways 1
Magnetic Variation 17.141° W

METAR

FIMR 140400Z 09017KT 9999 SCT018 28/21 Q1018

Decode

TAF

TAF FIMR 132340Z 1400/1418 09015G30KT 9999 SCT018

Decode

Destination Runways

ID Width Length Bearing (true) Bearing (mag) Surface Threshold Offset Overrun Length
12 98 ft / 30 m 4,222 ft / 1,287 m 105.95° 123.09° Asphalt 440 ft / 134 m 98 ft / 30 m
30 98 ft / 30 m 4,222 ft / 1,287 m 285.94° 303.08° Asphalt 240 ft / 73 m 98 ft / 30 m

Popular Alternatives